createdAt,value
2019-01-14T00:01:07.062Z,78.23
2019-01-14T00:06:29.251Z,77.37
2019-01-14T00:11:51.451Z,77.25
2019-01-14T00:16:54.658Z,76.01
2019-01-14T00:22:16.916Z,75.88
2019-01-14T00:27:19.591Z,75.54
2019-01-14T00:32:22.310Z,75.28
2019-01-14T00:37:44.490Z,74.69
2019-01-14T00:42:47.367Z,74.70
2019-01-14T00:48:09.561Z,74.55
2019-01-14T00:53:12.234Z,74.42
2019-01-14T00:58:14.907Z,73.82
2019-01-14T01:03:30.666Z,73.31
2019-01-14T01:08:33.373Z,72.13
2019-01-14T01:13:56.020Z,72.24
2019-01-14T01:18:58.693Z,71.92
2019-01-14T01:24:01.386Z,72.53
2019-01-14T01:29:23.676Z,72.53
2019-01-14T01:34:45.879Z,72.77
2019-01-14T01:40:29.318Z,72.26
2019-01-14T01:45:51.537Z,72.37
2019-01-14T01:50:54.224Z,72.63
2019-01-14T01:56:16.407Z,71.94
2019-01-14T02:01:19.123Z,72.31
2019-01-14T02:06:41.331Z,72.56
2019-01-14T02:12:03.529Z,73.15
2019-01-14T02:17:25.747Z,73.62
2019-01-14T02:22:47.935Z,73.95
2019-01-14T02:28:10.119Z,73.89
2019-01-14T02:33:12.806Z,74.34
2019-01-14T02:38:35.022Z,74.39
2019-01-14T02:43:57.206Z,74.23
2019-01-14T02:49:19.377Z,73.63
2019-01-14T02:54:41.567Z,73.71
2019-01-14T02:59:56.378Z,73.47
2019-01-14T03:05:18.561Z,72.30
2019-01-14T03:10:21.338Z,71.77
2019-01-14T03:15:24.009Z,72.00
2019-01-14T03:20:46.187Z,71.93
2019-01-14T03:26:08.372Z,72.11
2019-01-14T03:31:30.550Z,71.82
2019-01-14T03:36:33.233Z,71.70
2019-01-14T03:41:55.405Z,71.29
2019-01-14T03:46:58.085Z,71.02
2019-01-14T03:52:20.259Z,70.79
2019-01-14T03:57:42.517Z,70.92
2019-01-14T04:02:45.354Z,71.97
2019-01-14T04:08:14.989Z,72.80
2019-01-14T04:13:37.154Z,73.34
2019-01-14T04:18:59.328Z,74.19
2019-01-14T04:24:21.519Z,74.33
2019-01-14T04:29:43.702Z,74.34
2019-01-14T04:35:06.365Z,74.67
2019-01-14T04:40:09.251Z,74.92
2019-01-14T04:45:12.255Z,75.23
2019-01-14T04:50:34.427Z,75.40
2019-01-14T04:55:37.077Z,75.60
2019-01-14T05:00:39.745Z,75.87
2019-01-14T05:06:01.922Z,75.94
2019-01-14T05:11:24.098Z,75.42
2019-01-14T05:16:46.271Z,75.33
2019-01-14T05:22:08.451Z,75.58
2019-01-14T05:27:11.109Z,75.26
2019-01-14T05:32:33.290Z,75.05
2019-01-14T05:37:37.552Z,74.83
2019-01-14T05:43:00.021Z,74.54
2019-01-14T05:48:02.700Z,74.61
2019-01-14T05:53:24.864Z,74.46
2019-01-14T05:58:47.042Z,74.32
2019-01-14T06:04:02.997Z,73.66
2019-01-14T06:09:25.164Z,73.29
2019-01-14T06:14:47.338Z,75.44
2019-01-14T06:20:11.649Z,78.82
2019-01-14T06:25:35.641Z,81.98
2019-01-14T06:30:57.817Z,84.71
2019-01-14T06:36:19.992Z,84.55
2019-01-14T06:41:42.168Z,84.56
2019-01-14T06:47:04.338Z,84.30
2019-01-14T06:52:07.004Z,84.03
2019-01-14T06:57:29.175Z,83.84
2019-01-14T07:02:44.263Z,83.42
2019-01-14T07:07:46.925Z,83.17
2019-01-14T07:13:09.217Z,82.86
2019-01-14T07:18:31.394Z,82.69
2019-01-14T07:23:53.561Z,82.70
2019-01-14T07:29:15.742Z,82.20
2019-01-14T07:34:37.906Z,82.23
2019-01-14T07:40:00.242Z,81.42
2019-01-14T07:45:22.440Z,80.68
2019-01-14T07:50:44.632Z,79.69
2019-01-14T07:56:07.021Z,78.53
2019-01-14T08:01:21.947Z,82.25
2019-01-14T08:06:44.128Z,85.89
2019-01-14T08:12:06.299Z,86.80
2019-01-14T08:17:28.609Z,87.05
2019-01-14T08:22:50.772Z,86.71
2019-01-14T08:28:12.943Z,86.52
2019-01-14T08:33:35.106Z,85.95
2019-01-14T08:38:57.278Z,85.50
2019-01-14T08:49:51.239Z,84.34
2019-01-14T08:55:13.417Z,83.78
2019-01-14T09:00:28.344Z,83.05
2019-01-14T09:05:50.765Z,82.19
2019-01-14T09:11:12.937Z,80.31
2019-01-14T09:16:35.110Z,79.08
2019-01-14T09:21:57.281Z,78.21
2019-01-14T09:27:19.481Z,78.39
2019-01-14T09:32:22.315Z,77.47
2019-01-14T09:37:44.483Z,77.06
2019-01-14T09:43:06.648Z,76.97
2019-01-14T09:48:28.818Z,75.92
2019-01-14T09:53:50.992Z,75.88
2019-01-14T09:59:13.166Z,75.27
2019-01-14T10:04:28.662Z,74.90
2019-01-14T10:09:50.829Z,75.30
2019-01-14T10:14:53.492Z,75.70
2019-01-14T10:20:15.656Z,75.47
2019-01-14T10:25:37.925Z,75.51
2019-01-14T10:31:00.117Z,74.91
2019-01-14T10:36:22.291Z,73.86
2019-01-14T10:41:44.461Z,73.57
2019-01-14T10:47:06.610Z,72.41
2019-01-14T10:52:10.748Z,71.44
2019-01-14T10:57:32.909Z,69.38
2019-01-14T11:02:48.350Z,68.03
2019-01-14T11:08:10.591Z,66.86
2019-01-14T11:13:32.766Z,66.62
2019-01-14T11:18:54.932Z,67.04
2019-01-14T11:24:17.093Z,67.51
2019-01-14T11:29:51.240Z,71.50
2019-01-14T11:35:13.413Z,73.04
2019-01-14T11:40:37.735Z,74.22
2019-01-14T11:45:59.903Z,74.10
2019-01-14T11:51:22.078Z,72.38
2019-01-14T11:56:44.463Z,70.04
2019-01-14T12:01:47.141Z,71.03
2019-01-14T12:07:09.310Z,71.32
2019-01-14T12:12:31.487Z,69.75
2019-01-14T12:17:53.657Z,69.61
2019-01-14T12:23:15.842Z,71.85
2019-01-14T12:28:38.010Z,73.05
2019-01-14T12:34:00.218Z,72.51
2019-01-14T12:39:22.396Z,71.13
2019-01-14T12:44:44.564Z,71.00
2019-01-14T12:50:09.182Z,69.13
2019-01-14T12:55:31.365Z,67.47
2019-01-14T13:00:46.935Z,66.67
2019-01-14T13:06:09.106Z,65.69
2019-01-14T13:11:31.272Z,65.78
2019-01-14T13:16:53.512Z,66.48
2019-01-14T13:22:15.694Z,66.18
2019-01-14T13:33:27.123Z,65.54
2019-01-14T13:38:49.296Z,64.98
2019-01-14T13:44:11.467Z,64.60
2019-01-14T13:49:33.636Z,67.43
2019-01-14T13:54:55.807Z,69.00
2019-01-14T14:00:12.573Z,70.55
2019-01-14T14:05:15.234Z,71.03
2019-01-14T14:10:37.411Z,69.94
2019-01-14T14:15:59.593Z,69.67
2019-01-14T14:21:21.780Z,70.72
2019-01-14T14:26:43.960Z,72.00
2019-01-14T14:32:06.125Z,71.00
2019-01-14T14:37:28.309Z,70.66
2019-01-14T14:42:50.478Z,70.61
2019-01-14T14:48:12.655Z,70.74
2019-01-14T14:53:34.844Z,71.09
2019-01-14T14:58:57.019Z,71.39
2019-01-14T15:04:11.851Z,71.39
2019-01-14T15:09:14.521Z,71.71
2019-01-14T15:14:36.703Z,72.21
2019-01-14T15:19:58.873Z,72.06
2019-01-14T15:25:21.049Z,71.72
2019-01-14T15:30:43.228Z,72.33
2019-01-14T15:36:05.390Z,73.62
2019-01-14T15:41:27.571Z,74.34
2019-01-14T15:46:49.737Z,75.11
2019-01-14T15:52:11.911Z,76.24
2019-01-14T15:57:34.099Z,77.98
2019-01-14T16:02:49.517Z,78.29
2019-01-14T16:08:11.788Z,79.00
2019-01-14T16:13:33.957Z,79.30
2019-01-14T16:18:56.132Z,79.90
2019-01-14T16:24:18.294Z,79.76
2019-01-14T16:29:20.957Z,80.07
2019-01-14T16:34:43.141Z,80.05
2019-01-14T16:40:05.368Z,79.72
2019-01-14T16:45:27.686Z,79.84
2019-01-14T16:50:30.343Z,80.08
2019-01-14T16:56:12.122Z,80.26
2019-01-14T17:01:27.076Z,80.29
2019-01-14T17:06:49.232Z,79.88
2019-01-14T17:12:11.408Z,79.57
2019-01-14T17:17:33.579Z,79.43
2019-01-14T17:22:55.780Z,78.25
2019-01-14T17:27:58.463Z,77.18
2019-01-14T17:33:20.633Z,75.59
2019-01-14T17:38:42.814Z,75.36
2019-01-14T17:44:04.991Z,75.77
2019-01-14T17:49:27.156Z,76.14
2019-01-14T17:54:49.458Z,75.87
2019-01-14T18:00:07.075Z,75.15
2019-01-14T18:05:29.246Z,75.02
2019-01-14T18:10:51.413Z,75.36
2019-01-14T18:16:13.615Z,75.34
2019-01-14T18:21:35.784Z,75.39
2019-01-14T18:26:58.105Z,75.78
2019-01-14T18:32:20.239Z,76.43
2019-01-14T18:37:42.537Z,77.20
2019-01-14T18:43:05.043Z,77.22
2019-01-14T18:48:27.431Z,77.46
2019-01-14T18:53:49.602Z,77.15
2019-01-14T18:59:11.786Z,76.80
2019-01-14T19:04:27.692Z,77.11
2019-01-14T19:09:49.867Z,77.49
2019-01-14T19:15:53.782Z,77.83
2019-01-14T19:21:15.997Z,77.69
2019-01-14T19:26:38.416Z,76.98
2019-01-14T19:32:00.577Z,76.74
2019-01-14T19:37:22.761Z,76.48
2019-01-14T19:42:25.456Z,76.81
2019-01-14T19:47:47.661Z,76.74
2019-01-14T19:53:09.849Z,76.52
2019-01-14T19:58:32.022Z,76.36
2019-01-14T20:03:47.763Z,76.12
2019-01-14T20:09:10.202Z,75.27
2019-01-14T20:14:12.904Z,74.78
2019-01-14T20:19:35.107Z,74.21
2019-01-14T20:24:57.294Z,73.55
2019-01-14T20:30:21.298Z,73.08
2019-01-14T20:35:43.480Z,72.77
2019-01-14T20:41:05.654Z,72.60
2019-01-14T20:46:27.827Z,73.00
2019-01-14T20:51:50.007Z,73.42
2019-01-14T20:57:47.539Z,73.71
2019-01-14T21:02:53.032Z,74.39
2019-01-14T21:08:15.310Z,74.35
2019-01-14T21:13:37.587Z,74.24
2019-01-14T21:18:59.756Z,74.27
2019-01-14T21:24:21.941Z,74.14
2019-01-14T21:29:26.009Z,73.83
2019-01-14T21:34:48.684Z,73.90
2019-01-14T21:39:51.366Z,73.72
2019-01-14T21:45:14.037Z,73.54
2019-01-14T21:50:36.209Z,72.89
2019-01-14T21:55:58.373Z,72.74
2019-01-14T22:01:01.057Z,72.16
2019-01-14T22:06:23.227Z,72.43
2019-01-14T22:11:45.410Z,72.50
2019-01-14T22:17:07.606Z,72.97
2019-01-14T22:22:29.775Z,73.10
2019-01-14T22:27:51.958Z,72.77
2019-01-14T22:33:14.144Z,72.75
2019-01-14T22:38:36.321Z,71.81
2019-01-14T22:43:58.497Z,71.67
2019-01-14T22:49:01.153Z,71.98
2019-01-14T22:54:23.390Z,71.99
2019-01-14T22:59:45.685Z,72.49
2019-01-14T23:05:07.887Z,72.77
2019-01-14T23:10:30.069Z,73.38
2019-01-14T23:15:52.259Z,73.64
2019-01-14T23:21:14.428Z,73.83
2019-01-14T23:26:36.610Z,73.58
2019-01-14T23:31:58.799Z,74.12
2019-01-14T23:37:20.984Z,74.32
2019-01-14T23:42:43.177Z,74.53
2019-01-14T23:48:05.369Z,75.17
2019-01-14T23:53:27.672Z,75.59
2019-01-14T23:58:49.829Z,75.65
